Time;durP1;ratioP1;P1;durP2;ratioP2;P2;SDS_P1;SDS_P2;PMS_P1;PMS_P2;Temp;Humidity;BMP_temperature;BMP_pressure;BME280_temperature;BME280_humidity;BME280_pressure;Samples;Min_cycle;Max_cycle;Signal;HPM_P1;HPM_P2
2022/11/04 00:01:52;;;;;;;5.90;3.90;;;;;;;10.45;91.54;99994.91;5042041;28;20504;-72
2022/11/04 00:04:22;;;;;;;4.88;4.07;;;;;;;10.44;91.73;99998.47;5032305;28;20046;-73
2022/11/04 00:06:51;;;;;;;6.63;4.20;;;;;;;10.41;91.75;100010.84;5021764;28;20678;-73
2022/11/04 00:09:22;;;;;;;6.68;4.43;;;;;;;10.39;91.73;100019.75;5033214;28;20463;-72
2022/11/04 00:14:36;;;;;;;6.68;3.80;;;;;;;10.34;91.56;100026.94;5020175;28;20045;-72
2022/11/04 00:17:23;;;;;;;4.15;3.75;;;;;;;10.31;91.82;100038.47;5016113;28;20046;-73
2022/11/04 00:33:55;;;;;;;2.53;1.90;;;;;;;10.17;90.79;100075.09;5030056;28;20092;-70
2022/11/04 00:36:24;;;;;;;4.45;1.50;;;;;;;10.09;89.95;100068.34;5020337;28;20963;-71
2022/11/04 00:38:52;;;;;;;4.28;1.40;;;;;;;10.00;89.80;100078.41;5017803;28;20038;-71
2022/11/04 00:41:26;;;;;;;1.65;0.80;;;;;;;9.92;89.78;100076.06;5023167;28;20053;-70
2022/11/04 00:44:00;;;;;;;1.58;1.00;;;;;;;9.84;90.20;100065.81;5027103;28;20117;-70
2022/11/04 00:46:31;;;;;;;2.13;1.08;;;;;;;9.81;90.23;100068.59;5030562;28;20038;-70
2022/11/04 00:48:58;;;;;;;1.45;0.80;;;;;;;9.78;90.04;100060.81;5017148;28;20076;-70
2022/11/04 00:51:26;;;;;;;1.20;0.80;;;;;;;9.76;89.91;100063.50;5027859;28;20048;-70
2022/11/04 00:53:53;;;;;;;0.93;0.70;;;;;;;9.73;89.85;100065.38;5021747;28;20081;-70
2022/11/04 00:56:21;;;;;;;1.45;0.73;;;;;;;9.68;89.63;100057.66;5021566;28;20042;-71
2022/11/04 00:58:49;;;;;;;0.95;0.65;;;;;;;9.60;89.64;100065.88;5029987;28;20048;-71
2022/11/04 01:01:18;;;;;;;1.48;0.70;;;;;;;9.54;89.71;100070.53;5024736;28;20055;-71
2022/11/04 01:03:48;;;;;;;0.80;0.63;;;;;;;9.47;89.74;100070.75;5017391;28;20046;-72
2022/11/04 01:06:17;;;;;;;0.90;0.68;;;;;;;9.43;90.09;100070.91;5024556;28;20748;-73
2022/11/04 01:08:45;;;;;;;1.30;0.80;;;;;;;9.40;90.25;100074.53;5030071;28;20058;-72
2022/11/04 01:11:14;;;;;;;1.60;1.20;;;;;;;9.36;90.37;100072.06;5011833;28;20204;-73
2022/11/04 01:13:41;;;;;;;1.63;1.35;;;;;;;9.29;90.30;100077.56;5028120;28;20145;-72
2022/11/04 01:16:10;;;;;;;1.80;1.40;;;;;;;9.20;90.57;100077.91;5018987;28;20048;-73
2022/11/04 01:18:40;;;;;;;1.63;1.33;;;;;;;9.13;90.57;100073.78;5021307;28;20078;-73
2022/11/04 01:21:12;;;;;;;2.80;1.70;;;;;;;9.07;90.70;100082.75;5027410;28;20049;-73
2022/11/04 01:23:42;;;;;;;4.80;1.73;;;;;;;9.01;90.84;100083.81;5030600;28;20058;-73
2022/11/04 01:26:19;;;;;;;5.03;2.08;;;;;;;8.96;91.24;100085.75;5029179;28;20034;-74
2022/11/04 01:28:46;;;;;;;3.88;3.08;;;;;;;8.91;91.31;100082.44;5011461;28;20056;-74
2022/11/04 01:31:20;;;;;;;4.25;3.85;;;;;;;8.91;91.85;100092.94;5030347;28;20046;-74
2022/11/04 01:33:52;;;;;;;7.57;5.27;;;;;;;8.89;92.26;100092.16;5011352;28;20049;-74
2022/11/04 01:36:20;;;;;;;12.15;6.15;;;;;;;8.89;92.55;100097.41;5025039;28;20255;-74
2022/11/04 01:38:48;;;;;;;8.40;6.78;;;;;;;8.90;92.92;100096.50;5027191;28;20264;-74
2022/11/04 01:41:20;;;;;;;9.60;7.50;;;;;;;8.94;93.35;100107.78;5026793;28;20761;-73
2022/11/04 01:43:53;;;;;;;11.15;7.93;;;;;;;8.98;93.79;100106.72;5022643;28;20516;-74
2022/11/04 01:46:41;;;;;;;13.05;8.02;;;;;;;9.11;94.28;100117.66;5022142;28;20057;-74
2022/11/04 01:49:27;;;;;;;12.23;8.43;;;;;;;9.17;94.40;100110.41;5018671;28;20038;-74
2022/11/04 01:52:07;;;;;;;11.30;8.23;;;;;;;9.22;94.50;100112.03;5027044;28;20046;-73
2022/11/04 01:54:36;;;;;;;11.75;7.93;;;;;;;9.28;94.57;100110.03;5029683;28;20516;-72
2022/11/04 01:57:09;;;;;;;10.85;8.32;;;;;;;9.31;94.69;100112.53;5021179;28;20043;-73
2022/11/04 01:59:41;;;;;;;10.98;8.38;;;;;;;9.35;94.71;100123.84;5023924;28;20056;-73
2022/11/04 02:02:09;;;;;;;11.68;8.45;;;;;;;9.40;94.73;100127.13;5020042;28;20208;-73
2022/11/04 02:04:39;;;;;;;11.55;7.90;;;;;;;9.50;94.59;100129.44;5010984;28;20083;-73
2022/11/04 02:07:09;;;;;;;13.93;7.93;;;;;;;9.56;94.47;100130.06;5031308;28;20145;-74
2022/11/04 02:09:40;;;;;;;12.77;7.75;;;;;;;9.62;94.15;100137.72;5020630;28;20054;-74
2022/11/04 02:14:56;;;;;;;13.68;7.50;;;;;;;9.73;93.83;100133.81;5013637;28;20062;-73
2022/11/04 02:18:07;;;;;;;11.80;7.38;;;;;;;9.74;93.53;100131.16;5023087;28;20038;-73
2022/11/04 02:21:31;;;;;;;9.65;6.78;;;;;;;9.70;92.65;100132.16;5012288;28;20205;-74
2022/11/04 02:24:46;;;;;;;10.38;6.95;;;;;;;9.58;92.63;100128.25;5021900;28;20495;-73
2022/11/04 02:27:32;;;;;;;9.35;6.72;;;;;;;9.46;92.61;100126.91;5020280;28;20389;-74
2022/11/04 02:30:04;;;;;;;11.55;7.03;;;;;;;9.38;92.76;100134.22;5029413;28;20053;-72
2022/11/04 02:33:09;;;;;;;10.20;7.05;;;;;;;9.32;92.73;100142.34;5042323;28;20041;-73
2022/11/04 02:36:01;;;;;;;10.52;6.53;;;;;;;9.24;93.18;100152.28;5022145;28;20061;-74
2022/11/04 02:39:06;;;;;;;8.88;6.68;;;;;;;9.17;93.19;100149.03;5015804;28;20479;-73
2022/11/04 02:41:57;;;;;;;11.98;6.22;;;;;;;9.11;93.24;100157.09;5029995;28;20053;-72
2022/11/04 02:44:41;;;;;;;10.95;6.22;;;;;;;9.06;93.22;100152.00;5024316;28;20038;-73
2022/11/04 02:47:16;;;;;;;9.38;6.15;;;;;;;9.04;93.37;100156.50;5022092;28;20073;-73
2022/11/04 02:50:02;;;;;;;10.25;6.60;;;;;;;8.98;93.66;100147.03;5024906;28;20135;-73
2022/11/04 02:52:40;;;;;;;12.35;6.50;;;;;;;8.94;93.68;100150.69;5028538;28;20068;-71
2022/11/04 02:55:24;;;;;;;9.17;6.13;;;;;;;8.90;93.64;100156.09;5020315;28;20121;-73
2022/11/04 02:57:58;;;;;;;11.20;6.25;;;;;;;8.80;93.82;100151.16;5014640;28;20038;-73
2022/11/04 03:00:25;;;;;;;9.30;6.10;;;;;;;8.78;93.89;100167.91;5032014;28;20045;-72
2022/11/04 03:03:00;;;;;;;9.93;5.90;;;;;;;8.72;93.92;100166.31;5044109;28;20116;-73
2022/11/04 03:05:33;;;;;;;8.30;5.68;;;;;;;8.69;94.04;100169.94;5031222;28;20128;-72
2022/11/04 03:08:09;;;;;;;9.77;6.03;;;;;;;8.63;94.06;100175.38;5029028;28;20054;-72
2022/11/04 03:10:47;;;;;;;11.00;5.97;;;;;;;8.59;93.96;100179.03;5026063;28;20120;-72
2022/11/04 03:13:27;;;;;;;10.43;6.00;;;;;;;8.53;94.12;100177.44;5030109;28;20042;-72
2022/11/04 03:16:02;;;;;;;10.55;6.07;;;;;;;8.48;94.22;100173.25;5033512;28;20435;-71
2022/11/04 03:18:46;;;;;;;10.68;6.30;;;;;;;8.45;94.43;100181.19;5024373;28;20069;-71
2022/11/04 03:21:15;;;;;;;7.80;5.35;;;;;;;8.40;94.35;100181.34;5032502;28;20045;-72
2022/11/04 03:23:42;;;;;;;11.50;5.10;;;;;;;8.35;94.40;100178.84;5024312;28;20729;-72
2022/11/04 03:26:38;;;;;;;9.05;4.93;;;;;;;8.34;94.56;100195.53;5021214;28;20361;-72
2022/11/04 03:29:24;;;;;;;7.78;4.55;;;;;;;8.29;94.48;100191.31;5030712;28;20432;-71
2022/11/04 03:32:21;;;;;;;8.18;4.82;;;;;;;8.29;94.71;100199.19;5030503;28;20100;-72
2022/11/04 03:34:49;;;;;;;9.82;4.63;;;;;;;8.23;94.66;100197.63;5012822;28;20050;-72
2022/11/04 03:37:16;;;;;;;15.90;4.63;;;;;;;8.20;94.76;100195.06;5019794;28;20523;-72
2022/11/04 03:39:43;;;;;;;9.20;4.30;;;;;;;8.17;94.77;100201.28;5022696;28;20052;-72
2022/11/04 03:42:20;;;;;;;12.88;4.60;;;;;;;8.17;94.78;100203.91;5035277;28;20045;-73
2022/11/04 03:44:54;;;;;;;7.53;4.30;;;;;;;8.15;95.04;100202.25;5030236;28;20096;-73
2022/11/04 03:47:26;;;;;;;8.20;4.10;;;;;;;8.11;94.88;100216.34;5041432;28;20045;-73
2022/11/04 03:50:12;;;;;;;13.43;4.35;;;;;;;8.09;94.91;100208.53;5022073;28;20038;-72
2022/11/04 03:52:39;;;;;;;11.00;3.63;;;;;;;8.05;94.93;100213.03;5031236;28;20050;-73
2022/11/04 03:55:10;;;;;;;8.15;3.70;;;;;;;8.04;94.98;100210.44;5029277;28;20093;-72
2022/11/04 03:58:08;;;;;;;9.45;3.63;;;;;;;8.04;95.00;100213.94;5031016;28;20527;-72
2022/11/04 04:00:50;;;;;;;8.15;3.20;;;;;;;8.01;95.04;100214.00;5019813;28;20049;-73
2022/11/04 04:03:32;;;;;;;9.65;3.42;;;;;;;7.99;94.99;100215.81;5029353;28;20089;-73
2022/11/04 04:06:17;;;;;;;8.40;3.10;;;;;;;7.96;95.20;100207.19;5012509;28;20051;-73
2022/11/04 04:08:59;;;;;;;8.20;2.90;;;;;;;7.95;95.21;100219.47;5022803;28;20054;-73
2022/11/04 04:11:54;;;;;;;8.73;3.60;;;;;;;7.95;95.10;100222.09;5037701;28;20052;-73
2022/11/04 04:14:38;;;;;;;6.03;3.30;;;;;;;7.91;95.19;100223.06;5018086;28;20042;-72
2022/11/04 04:17:18;;;;;;;;;;;;;;;7.85;95.08;100223.25;5034808;28;20054;-73
2022/11/04 04:20:00;;;;;;;7.00;2.83;;;;;;;7.83;95.31;100218.06;5032325;28;20496;-73
2022/11/04 04:22:39;;;;;;;9.45;3.08;;;;;;;7.81;95.23;100225.09;5031623;28;20149;-71
2022/11/04 04:28:03;;;;;;;5.47;2.75;;;;;;;7.93;96.14;100227.38;5014244;28;20133;-72
2022/11/04 04:30:34;;;;;;;9.52;3.08;;;;;;;8.00;96.60;100230.66;5034945;28;20103;-71
2022/11/04 04:33:08;;;;;;;9.95;2.95;;;;;;;8.11;96.53;100240.00;5037116;28;20043;-72
2022/11/04 04:35:45;;;;;;;9.13;3.13;;;;;;;8.18;96.43;100236.31;5013031;28;20038;-71
2022/11/04 04:47:22;;;;;;;6.13;2.90;;;;;;;8.34;95.93;100242.78;5032570;28;20459;-71
2022/11/04 04:49:58;;;;;;;5.10;2.90;;;;;;;8.29;95.31;100242.06;5019062;28;20133;-70
2022/11/04 04:52:38;;;;;;;8.13;3.17;;;;;;;8.22;95.07;100244.03;5016077;28;20255;-71
2022/11/04 04:55:07;;;;;;;6.63;2.95;;;;;;;8.09;94.75;100245.31;5018791;28;20572;-70
2022/11/04 04:57:34;;;;;;;9.95;2.97;;;;;;;7.98;94.93;100242.13;5036758;28;20402;-71
2022/11/04 05:00:04;;;;;;;6.28;2.80;;;;;;;7.85;94.56;100234.59;5018885;28;20119;-71
2022/11/04 05:02:32;;;;;;;7.22;3.03;;;;;;;7.75;94.56;100243.63;5042016;28;20041;-71
2022/11/04 05:05:00;;;;;;;7.32;2.97;;;;;;;7.66;94.52;100247.41;5027061;28;20049;-71
2022/11/04 05:07:27;;;;;;;7.50;2.80;;;;;;;7.57;94.46;100245.88;5024820;28;20061;-71
2022/11/04 05:09:54;;;;;;;6.82;3.25;;;;;;;7.49;94.65;100247.84;5018206;28;20046;-70
2022/11/04 05:12:23;;;;;;;8.90;2.90;;;;;;;7.40;94.50;100250.72;5033603;28;20514;-71
2022/11/04 05:14:50;;;;;;;7.13;3.15;;;;;;;7.33;94.62;100257.88;5016326;28;20049;-71
2022/11/04 05:17:17;;;;;;;7.05;2.78;;;;;;;7.28;94.59;100265.00;5033616;28;20046;-71
2022/11/04 05:19:44;;;;;;;8.55;3.10;;;;;;;7.21;94.75;100269.56;5023383;28;20042;-71
2022/11/04 05:22:11;;;;;;;6.70;3.42;;;;;;;7.16;94.83;100274.03;5023898;28;20401;-71
2022/11/04 05:24:38;;;;;;;7.72;3.10;;;;;;;7.10;94.82;100267.19;5027186;28;20049;-71
2022/11/04 05:27:05;;;;;;;8.40;3.25;;;;;;;7.07;94.81;100269.03;5013176;28;20051;-70
2022/11/04 05:29:32;;;;;;;9.40;3.20;;;;;;;7.04;95.01;100269.09;5024129;28;20060;-71
2022/11/04 05:31:59;;;;;;;9.38;3.30;;;;;;;7.02;95.17;100269.16;5023500;28;20077;-70
2022/11/04 05:34:26;;;;;;;10.73;3.70;;;;;;;6.98;95.09;100278.84;5027613;28;20530;-70
2022/11/04 05:36:53;;;;;;;6.22;3.35;;;;;;;6.93;95.00;100274.63;5011812;28;20112;-70
2022/11/04 05:39:20;;;;;;;8.82;3.67;;;;;;;6.89;95.04;100279.06;5011429;28;20492;-69
2022/11/04 05:41:47;;;;;;;9.60;3.75;;;;;;;6.86;95.34;100273.91;5034294;28;20475;-71
2022/11/04 05:44:14;;;;;;;11.00;3.60;;;;;;;6.83;95.49;100279.19;5029671;28;20093;-71
2022/11/04 05:46:41;;;;;;;12.70;3.83;;;;;;;6.80;95.24;100290.63;5021308;28;20046;-70
2022/11/04 05:49:09;;;;;;;7.35;3.65;;;;;;;6.77;95.26;100292.47;5030509;28;20045;-74
2022/11/04 05:51:37;;;;;;;10.77;3.30;;;;;;;6.75;95.40;100299.50;5026954;28;20090;-73
2022/11/04 05:54:04;;;;;;;11.60;3.80;;;;;;;6.72;95.37;100300.44;5018813;28;20566;-73
2022/11/04 05:56:31;;;;;;;6.85;3.72;;;;;;;6.71;95.29;100306.56;5033547;28;20050;-73
2022/11/04 05:58:58;;;;;;;10.35;4.00;;;;;;;6.68;95.52;100297.03;5028127;28;20034;-73
2022/11/04 06:01:38;;;;;;;8.40;4.07;;;;;;;6.74;95.70;100310.84;5033001;28;20583;-73
2022/11/04 06:04:12;;;;;;;11.40;4.20;;;;;;;6.71;95.81;100316.19;5018399;28;20086;-73
2022/11/04 06:06:40;;;;;;;8.93;3.97;;;;;;;6.67;95.72;100318.88;5027621;28;20116;-73
2022/11/04 06:09:07;;;;;;;9.10;4.00;;;;;;;6.65;95.86;100322.44;5028964;28;20508;-73
2022/11/04 06:11:36;;;;;;;10.40;5.13;;;;;;;6.61;95.67;100315.53;5033763;28;20104;-73
2022/11/04 06:14:04;;;;;;;14.55;4.68;;;;;;;6.59;95.73;100322.53;5014249;28;20053;-73
2022/11/04 06:16:31;;;;;;;14.60;5.70;;;;;;;6.59;95.88;100333.91;5023423;28;20038;-72
2022/11/04 06:18:58;;;;;;;18.67;6.30;;;;;;;6.65;96.27;100330.28;5027304;28;20046;-72
2022/11/04 06:21:34;;;;;;;13.27;5.38;;;;;;;6.71;96.38;100334.53;5033464;28;20038;-72
2022/11/04 06:24:02;;;;;;;14.50;5.47;;;;;;;6.73;96.42;100328.34;5031263;28;20514;-72
2022/11/04 06:26:31;;;;;;;11.75;5.60;;;;;;;6.79;96.58;100333.44;5021989;28;20046;-72
2022/11/04 06:28:58;;;;;;;13.30;5.82;;;;;;;6.80;96.39;100329.94;5026071;28;20476;-70
2022/11/04 06:31:26;;;;;;;10.90;5.05;;;;;;;6.80;96.51;100332.53;5024765;28;20131;-70
2022/11/04 06:33:55;;;;;;;8.60;4.70;;;;;;;6.80;96.35;100343.03;5027644;28;20046;-70
2022/11/04 06:36:22;;;;;;;9.90;4.93;;;;;;;6.79;96.33;100338.69;5030505;28;20042;-70
2022/11/04 06:38:49;;;;;;;13.20;5.03;;;;;;;6.79;96.25;100338.69;5030344;28;20045;-70
2022/11/04 06:41:17;;;;;;;13.55;5.60;;;;;;;6.79;96.12;100343.06;5028093;28;20045;-70
2022/11/04 06:43:44;;;;;;;12.98;5.00;;;;;;;6.76;95.99;100354.50;5029273;28;20472;-70
2022/11/04 06:46:37;;;;;;;12.52;5.20;;;;;;;6.74;95.92;100352.78;5030909;28;20042;-70
2022/11/04 06:49:08;;;;;;;11.50;5.50;;;;;;;6.69;95.91;100358.13;5030869;28;20042;-70
2022/11/04 06:51:36;;;;;;;10.75;5.13;;;;;;;6.71;96.04;100352.88;5024456;28;20514;-70
2022/11/04 06:54:12;;;;;;;10.27;4.65;;;;;;;6.74;96.38;100366.75;5028893;28;20045;-69
2022/11/04 06:56:40;;;;;;;10.35;4.45;;;;;;;6.79;96.44;100364.03;5029653;28;20046;-70
2022/11/04 06:59:19;;;;;;;13.30;5.40;;;;;;;6.82;96.38;100354.34;5030516;28;20038;-70
2022/11/04 07:01:49;;;;;;;12.75;4.68;;;;;;;6.90;96.58;100371.63;5030702;28;20049;-70
2022/11/04 07:04:17;;;;;;;11.65;4.90;;;;;;;6.94;96.60;100366.28;5024407;28;20463;-70
2022/11/04 07:06:44;;;;;;;13.80;6.32;;;;;;;7.01;96.63;100366.16;5032082;28;20049;-70
2022/11/04 07:09:14;;;;;;;16.10;6.40;;;;;;;7.05;96.61;100366.06;5032073;28;20041;-70
2022/11/04 07:11:43;;;;;;;16.50;6.85;;;;;;;7.10;96.57;100374.66;5030993;28;20042;-71
2022/11/04 07:14:11;;;;;;;10.57;6.18;;;;;;;7.18;96.63;100376.25;5030103;28;20049;-70
2022/11/04 07:16:38;;;;;;;10.90;5.93;;;;;;;7.25;96.78;100375.22;5030349;28;20038;-71
2022/11/04 07:19:06;;;;;;;10.32;5.20;;;;;;;7.34;96.76;100382.84;5032636;28;20987;-71
2022/11/04 07:21:33;;;;;;;15.43;5.47;;;;;;;7.41;96.76;100383.56;5032922;28;20038;-70
2022/11/04 07:24:01;;;;;;;11.43;4.53;;;;;;;7.48;96.70;100385.13;5033147;28;20768;-71
2022/11/04 07:26:28;;;;;;;13.75;5.18;;;;;;;7.55;96.48;100383.22;5031199;28;20068;-71
2022/11/04 07:28:55;;;;;;;11.88;5.18;;;;;;;7.61;96.79;100385.69;5034785;28;20512;-71
2022/11/04 07:31:22;;;;;;;12.88;5.90;;;;;;;7.69;96.71;100396.84;5030899;28;20038;-71
2022/11/04 07:33:50;;;;;;;9.73;4.72;;;;;;;7.75;96.71;100398.44;5032835;28;20562;-71
2022/11/04 07:36:18;;;;;;;11.82;6.13;;;;;;;7.83;96.76;100404.38;5026438;28;20070;-71
2022/11/04 07:38:48;;;;;;;15.75;7.18;;;;;;;7.94;96.92;100398.84;5031250;28;20042;-71
2022/11/04 07:41:16;;;;;;;25.60;12.60;;;;;;;8.06;97.00;100405.53;5032363;28;20527;-71
2022/11/04 07:43:51;;;;;;;30.52;18.60;;;;;;;8.19;96.94;100409.53;5032064;28;20057;-71
2022/11/04 07:46:20;;;;;;;32.47;21.10;;;;;;;8.30;96.95;100400.50;5031708;28;20037;-70
2022/11/04 07:48:47;;;;;;;43.30;20.65;;;;;;;8.39;96.92;100395.84;5031364;28;20046;-70
2022/11/04 07:51:17;;;;;;;33.17;18.30;;;;;;;8.50;96.82;100395.59;5029120;28;20504;-71
2022/11/04 07:53:44;;;;;;;17.45;8.88;;;;;;;8.58;96.94;100397.13;5035077;28;20034;-70
2022/11/04 07:56:13;;;;;;;21.92;13.50;;;;;;;8.64;96.75;100402.22;5028590;28;20038;-70
2022/11/04 07:58:40;;;;;;;16.50;8.45;;;;;;;8.68;96.56;100391.56;5027564;28;20041;-71
2022/11/04 08:01:15;;;;;;;16.00;9.02;;;;;;;8.76;96.56;100401.84;5032014;28;20085;-70
2022/11/04 08:03:42;;;;;;;16.92;8.98;;;;;;;8.83;96.41;100399.88;5041537;28;20042;-71
2022/11/04 08:06:13;;;;;;;15.82;8.32;;;;;;;8.88;96.12;100407.63;5029885;28;20800;-70
2022/11/04 08:08:42;;;;;;;18.95;9.55;;;;;;;8.93;96.06;100413.63;5029505;28;20050;-70
2022/11/04 08:11:14;;;;;;;14.40;7.72;;;;;;;8.98;96.08;100415.22;5034299;28;20072;-70
2022/11/04 08:13:46;;;;;;;16.48;8.48;;;;;;;9.05;96.07;100422.91;5050925;28;20076;-70
2022/11/04 08:16:20;;;;;;;16.88;9.75;;;;;;;9.13;96.09;100415.63;5030749;28;20038;-70
2022/11/04 08:18:51;;;;;;;21.50;13.20;;;;;;;9.20;95.89;100418.94;5031411;28;20065;-70
2022/11/04 08:21:21;;;;;;;18.60;11.40;;;;;;;9.33;95.89;100430.81;5031164;28;20038;-71
2022/11/04 08:23:50;;;;;;;18.90;9.15;;;;;;;9.43;96.04;100429.59;5031822;28;20067;-70
2022/11/04 08:26:19;;;;;;;12.60;5.45;;;;;;;9.55;95.80;100430.97;5032054;28;20045;-70
2022/11/04 08:28:46;;;;;;;14.50;7.53;;;;;;;9.64;95.78;100428.03;5031329;28;20526;-70
2022/11/04 08:31:24;;;;;;;14.93;9.90;;;;;;;9.74;95.65;100431.22;5023540;28;20522;-70
2022/11/04 08:33:54;;;;;;;14.57;7.43;;;;;;;9.82;95.72;100438.00;5018894;28;20468;-70
2022/11/04 08:36:29;;;;;;;12.63;6.43;;;;;;;9.88;95.46;100443.06;5031963;28;20096;-70
2022/11/04 08:38:56;;;;;;;;;;;;;;;9.90;95.43;100452.63;5032105;28;20034;-70
2022/11/04 08:41:28;;;;;;;7.82;4.57;;;;;;;9.95;95.55;100460.38;5031655;28;19925;-71
2022/11/04 08:43:59;;;;;;;13.52;5.25;;;;;;;10.01;95.31;100462.78;5031379;28;20042;-70
2022/11/04 08:46:29;;;;;;;12.10;5.75;;;;;;;10.07;95.07;100470.47;5030741;28;20061;-71
2022/11/04 08:48:57;;;;;;;13.60;4.57;;;;;;;10.12;95.26;100474.75;5030055;28;20729;-71
2022/11/04 08:51:27;;;;;;;11.65;3.70;;;;;;;10.19;94.87;100481.50;5029985;28;20041;-71
2022/11/04 08:53:54;;;;;;;9.75;3.67;;;;;;;10.27;94.80;100487.41;5030043;28;20098;-71
2022/11/04 08:56:27;;;;;;;10.50;3.75;;;;;;;10.34;94.52;100483.63;5031682;28;20108;-71
2022/11/04 08:59:01;;;;;;;12.38;4.78;;;;;;;10.43;94.18;100478.97;5031669;28;20494;-71
2022/11/04 09:01:33;;;;;;;17.88;3.90;;;;;;;10.48;93.99;100485.81;5027054;28;20032;-71
2022/11/04 09:04:04;;;;;;;9.18;3.95;;;;;;;10.56;93.66;100488.19;5024904;28;20113;-70
2022/11/04 09:06:38;;;;;;;8.45;3.17;;;;;;;10.61;92.48;100493.28;5048459;28;20054;-71
2022/11/04 09:09:10;;;;;;;12.15;3.28;;;;;;;10.66;92.14;100493.97;5036356;28;20524;-71
2022/11/04 09:11:42;;;;;;;6.85;3.10;;;;;;;10.71;91.89;100495.50;5050445;28;20558;-70
2022/11/04 09:14:10;;;;;;;8.65;3.10;;;;;;;10.74;90.16;100494.53;5026582;28;20046;-70
2022/11/04 09:16:40;;;;;;;10.43;3.20;;;;;;;10.71;89.80;100497.31;5015591;28;20501;-71
2022/11/04 09:19:07;;;;;;;10.13;3.30;;;;;;;10.70;90.29;100506.97;5030583;28;20748;-71
2022/11/04 09:21:35;;;;;;;13.45;3.25;;;;;;;10.71;90.21;100507.84;5024752;28;20043;-71
2022/11/04 09:24:03;;;;;;;11.82;2.95;;;;;;;10.71;90.03;100508.69;5030093;28;20524;-71
2022/11/04 09:26:30;;;;;;;9.52;2.60;;;;;;;10.73;90.14;100519.22;5030755;28;20049;-70
2022/11/04 09:28:58;;;;;;;10.02;3.50;;;;;;;10.75;89.99;100524.41;5022059;28;20539;-71
2022/11/04 09:31:29;;;;;;;7.13;3.30;;;;;;;10.77;90.09;100519.94;5029036;28;20048;-71
2022/11/04 09:33:56;;;;;;;11.02;3.20;;;;;;;10.79;89.96;100529.53;5028677;28;20050;-71
2022/11/04 09:36:23;;;;;;;9.18;3.17;;;;;;;10.81;89.89;100526.81;5030619;28;20038;-73
2022/11/04 09:38:51;;;;;;;11.80;3.25;;;;;;;10.81;89.92;100526.81;5038203;28;20092;-71
2022/11/04 09:41:50;;;;;;;8.75;3.05;;;;;;;10.89;89.98;100530.03;5022558;28;20046;-71
2022/11/04 09:44:27;;;;;;;12.32;3.42;;;;;;;10.96;89.86;100531.53;5030792;28;20065;-71
2022/11/04 09:47:01;;;;;;;6.97;2.90;;;;;;;11.05;89.54;100526.84;5024507;28;20041;-71
2022/11/04 09:49:36;;;;;;;10.55;4.10;;;;;;;11.09;89.60;100533.72;5030128;28;20046;-72
2022/11/04 09:52:17;;;;;;;10.20;3.40;;;;;;;11.11;89.14;100521.31;5029675;28;20038;-71
2022/11/04 09:55:00;;;;;;;10.55;3.95;;;;;;;11.14;89.24;100531.78;5028738;28;20034;-71
2022/11/04 09:57:28;;;;;;;8.82;4.00;;;;;;;11.12;88.98;100531.84;5038018;28;20100;-72
2022/11/04 09:59:57;;;;;;;9.25;3.65;;;;;;;11.09;88.82;100533.72;5033595;28;20471;-74
2022/11/04 10:02:40;;;;;;;10.07;3.80;;;;;;;11.03;88.65;100526.91;5048698;28;20077;-73
2022/11/04 10:05:39;;;;;;;10.37;3.70;;;;;;;10.97;88.72;100530.63;5019607;28;20038;-73
2022/11/04 10:08:27;;;;;;;10.63;4.10;;;;;;;10.95;88.95;100531.59;5015519;28;20067;-74
2022/11/04 10:11:27;;;;;;;13.45;4.15;;;;;;;10.92;88.77;100535.19;5027135;28;20042;-75
2022/11/04 10:14:18;;;;;;;8.52;4.10;;;;;;;10.95;88.67;100543.00;5024676;28;20107;-75
2022/11/04 10:17:27;;;;;;;10.43;4.22;;;;;;;11.03;88.73;100551.50;5031589;28;20073;-75
2022/11/04 10:20:17;;;;;;;11.77;3.75;;;;;;;11.16;88.94;100551.03;5019707;28;20042;-75
2022/11/04 10:22:53;;;;;;;10.10;4.00;;;;;;;11.31;88.98;100554.88;5028348;28;20435;-74
2022/11/04 10:25:59;;;;;;;9.57;3.80;;;;;;;11.42;88.70;100550.06;5024740;28;20038;-73
2022/11/04 10:28:42;;;;;;;13.45;4.10;;;;;;;11.43;88.50;100548.28;5027422;28;20062;-73
2022/11/04 10:31:17;;;;;;;12.80;4.07;;;;;;;11.42;88.01;100554.47;5033753;28;20038;-74
2022/11/04 10:33:53;;;;;;;13.00;4.20;;;;;;;11.36;87.24;100557.34;5021713;28;20047;-75
2022/11/04 10:36:23;;;;;;;14.82;4.60;;;;;;;11.26;86.10;100556.81;5033722;28;20048;-75
2022/11/04 10:38:54;;;;;;;11.40;3.85;;;;;;;11.18;86.60;100550.06;5026409;28;20042;-73
2022/11/04 10:41:37;;;;;;;10.38;3.90;;;;;;;11.15;86.68;100544.91;5032897;28;20049;-74
2022/11/04 10:44:23;;;;;;;10.93;4.03;;;;;;;11.23;86.65;100562.25;5030232;28;20041;-75
2022/11/04 10:47:34;;;;;;;9.43;3.42;;;;;;;11.29;85.12;100552.28;5044300;28;20054;-74
2022/11/04 10:50:36;;;;;;;11.27;4.05;;;;;;;11.35;84.61;100551.19;5033307;28;20432;-75
2022/11/04 10:53:18;;;;;;;9.80;3.88;;;;;;;11.51;83.99;100551.47;5030569;28;20510;-75
2022/11/04 10:56:10;;;;;;;12.20;4.60;;;;;;;11.64;84.60;100552.72;5046351;28;20042;-75
2022/11/04 10:58:45;;;;;;;12.23;4.45;;;;;;;11.86;84.58;100554.50;5020072;28;20517;-75
2022/11/04 11:01:33;;;;;;;10.02;4.20;;;;;;;12.05;82.79;100556.44;5020046;28;20037;-74
2022/11/04 11:04:06;;;;;;;9.43;3.85;;;;;;;12.25;81.75;100561.75;5033786;28;20516;-74
2022/11/04 11:06:35;;;;;;;11.65;4.18;;;;;;;12.42;80.54;100570.75;5029480;28;20038;-74
2022/11/04 11:09:20;;;;;;;10.48;4.97;;;;;;;12.60;80.41;100568.25;5035687;28;20121;-74
2022/11/04 11:11:50;;;;;;;;;;;;;;;12.85;81.50;100579.47;5033839;28;20041;-75
2022/11/04 11:14:31;;;;;;;15.07;4.75;;;;;;;13.21;80.35;100577.91;5031748;28;20001;-73
2022/11/04 11:17:17;;;;;;;12.27;4.32;;;;;;;13.31;81.20;100581.84;5027036;28;20041;-74
2022/11/04 11:20:18;;;;;;;10.23;4.97;;;;;;;13.39;79.71;100578.88;5033362;28;20527;-74
2022/11/04 11:22:53;;;;;;;12.07;4.65;;;;;;;13.51;79.76;100582.75;5032638;28;20490;-74
2022/11/04 11:25:30;;;;;;;12.10;4.53;;;;;;;13.68;79.87;100581.09;5034148;28;20392;-75
2022/11/04 11:28:24;;;;;;;11.95;5.00;;;;;;;13.84;79.70;100579.44;5032347;28;20044;-74
2022/11/04 11:30:57;;;;;;;12.57;4.90;;;;;;;13.99;80.35;100580.47;5029531;28;20484;-75
2022/11/04 11:33:30;;;;;;;11.52;4.63;;;;;;;14.12;79.89;100578.94;5051320;28;20117;-75
2022/11/04 11:36:16;;;;;;;11.05;4.80;;;;;;;14.28;79.34;100583.47;5018538;28;20054;-73
2022/11/04 11:38:58;;;;;;;15.07;5.28;;;;;;;14.23;79.00;100580.22;5033182;28;20042;-73
2022/11/04 11:41:32;;;;;;;15.20;5.28;;;;;;;14.10;79.12;100579.94;5034760;28;20046;-74
2022/11/04 11:44:16;;;;;;;18.17;5.70;;;;;;;13.96;77.76;100577.97;5037982;28;20122;-73
2022/11/04 11:46:55;;;;;;;11.20;4.93;;;;;;;13.83;77.57;100583.00;5035178;28;20125;-74
2022/11/04 11:49:33;;;;;;;14.38;5.35;;;;;;;13.66;77.57;100594.41;5014728;28;20048;-75
2022/11/04 11:52:37;;;;;;;14.95;5.65;;;;;;;13.49;77.31;100600.47;5013056;28;20114;-73
2022/11/04 11:55:27;;;;;;;12.63;5.53;;;;;;;13.38;77.44;100597.47;5055040;28;20049;-72
2022/11/04 11:58:34;;;;;;;12.50;6.15;;;;;;;13.24;76.93;100604.25;5033697;28;20880;-73
2022/11/04 12:02:03;;;;;;;19.10;6.20;;;;;;;13.16;77.64;100601.94;5043508;28;20046;-75
2022/11/04 12:04:30;;;;;;;18.70;6.13;;;;;;;13.25;78.04;100611.25;5036303;28;20162;-73
2022/11/04 12:07:52;;;;;;;13.60;5.30;;;;;;;13.36;77.01;100610.75;5023842;28;20062;-74
2022/11/04 12:10:50;;;;;;;15.60;5.75;;;;;;;13.43;77.07;100614.00;5021608;28;20042;-73
2022/11/04 12:13:28;;;;;;;9.18;5.35;;;;;;;13.48;77.44;100617.31;5012813;28;20042;-75
2022/11/04 12:16:25;;;;;;;15.00;6.32;;;;;;;13.61;77.18;100621.09;5012051;28;20050;-73
2022/11/04 12:19:08;;;;;;;11.90;5.50;;;;;;;13.63;76.77;100629.84;5017796;28;20038;-73
2022/11/04 12:21:53;;;;;;;12.90;5.15;;;;;;;13.62;75.79;100630.78;5043449;28;20041;-75
2022/11/04 12:24:29;;;;;;;13.93;5.70;;;;;;;13.65;75.55;100640.34;5034603;28;20046;-73
2022/11/04 12:27:14;;;;;;;13.55;5.10;;;;;;;13.65;74.73;100638.59;5030791;28;20057;-74
2022/11/04 12:30:05;;;;;;;14.23;5.70;;;;;;;13.62;75.18;100637.88;5024205;28;20104;-73
2022/11/04 12:32:45;;;;;;;13.77;5.25;;;;;;;13.62;75.11;100640.53;5002774;28;20088;-73
2022/11/04 12:35:29;;;;;;;17.33;5.95;;;;;;;13.60;75.22;100648.50;5033855;28;20045;-76
2022/11/04 12:38:18;;;;;;;17.10;5.47;;;;;;;13.58;74.86;100649.53;5026085;28;20045;-74